Linda Swanson


No reviews yet. Add one!
Linda Swanson

Lyon RE Downtown Sacramento
Davis, CA

Experience: 22 Years
License #: 01015595 - California (exp. 11/16/16)
Top Locations Served: Sacramento, Elk Grove, West Sacramento, Citrus Heights
Languages: English

Linda Swanson's Realty Transactions

Filter:
  • Current Listings
  • Represented Buyer
  • Represented Seller
  Address City Price Date Bed/Bath Sqft  
410 Regatta Ln #202 West Sacramento $195,000 03/03/14 2 / 2 1,407
5416 9th Ave Sacramento $175,000 03/02/14 2 / 1&1/2 1,052
9244 Crowell Dr Elk Grove $499,000 02/18/14 6 / 4 3,714
675 40th St Sacramento $375,000 02/11/14 2 / 1 1,092
7024 Catlen Way Sacramento $277,900 01/30/14 3 / 2 1,541
7299 20th Ave Sacramento $175,000 01/16/14 3 / 1&1/2 1,236
1215 Rose Tree Way Sacramento $235,000 01/15/14 2 / 2 1,307
6820 Sandrock Way Sacramento $150,000 11/04/13 3 / 2 1,071
6901 Paseo Del Sol Way Elk Grove $275,000 10/10/13 3 / 2 1,651
8305 Trimmer Way Sacramento $234,775 09/19/13 3 / 2 1,527
6513 Briartree Way Citrus Heights $205,000 08/23/13 3 / 2 1,136
8425 Anthemis Ct Elk Grove $239,500 08/21/13 3 / 2 1,476
7984 Bothwell Dr Sacramento $232,000 07/25/13 3 / 2 1,691
7213 Beja Ct Elk Grove $399,000 07/15/13 4 / 2&1/2 2,633
8812 Sharkey Ave Elk Grove $284,000 07/08/13 3 / 2 1,832
1620 Sutterville Rd Sacramento $430,000 06/11/13 5 / 3 2,265
3391 Walker Rd West Sacramento $241,100 05/08/13 3 / 2&1/2 1,440
720 Ariel Way Woodland $250,000 05/01/13 3 / 2&1/2 1,850
2636 Dobbins Way Sacramento $159,000 04/25/13 4 / 2&1/2 1,650
8984 Paso Robles Way Elk Grove $259,000 04/23/13 4 / 3 2,059
8082 Camstock Ct Citrus Heights $275,000 04/07/13 5 / 3 2,306
3627 T St Sacramento $199,000 03/18/13 2 / 1 947
6953 Maita Cir Sacramento $200,000 03/08/13 4 / 2 1,484
1835 Pennsylvania Ave West Sacramento $165,000 02/13/13 3 / 2 1,440
9632 Spring Breeze Ct Elk Grove $245,000 02/04/13 3 / 2 1,724
576 4th Ave Sacramento $375,000 01/11/13 2 / 2 1,551
8861 La Riviera Dr Sacramento $91,250 11/19/12 2 / 1&1/2 1,014
2832 Ione St Sacramento $175,000 11/12/12 3 / 1 1,405
1709 Dante Cir Roseville $150,000 10/10/12 2 / 2 1,050
2347 Irvin Way Sacramento $142,500 09/27/12 2 / 1 992
7 Sikes Ct Sacramento $215,000 09/07/12 3 / 2 1,709
10218 Porto Moniz Way Elk Grove $325,000 09/05/12 4 / 2&1/2 3,228
2201 Halsey Cir Davis $339,000 08/14/12 3 / 2&1/2 1,624
5324 Spilman Ave Sacramento $349,200 08/06/12 3 / 2 1,805
3137 Churchill Rd Sacramento $120,000 04/02/12 3 / 1 1,243
4360 Lockwood Way Sacramento $174,600 02/13/12 3 / 2 1,462
5407 Noyack Way Sacramento $295,000 02/27/14 4 / 2&1/2 2,278
9244 Crowell Dr Elk Grove $499,000 02/18/14 6 / 4 3,714
675 40th St Sacramento $399,000 02/10/14 2 / 1 1,092
9244 Crowell Dr Elk Grove $510,000 01/07/14 6 / 4 3,714
5666 Da Vinci Way Sacramento $340,000 12/19/13 4 / 3&1/2 2,963
142 4th St West Sacramento $240,000 09/23/13 2 / 2&1/2 1,188
3509 Contempo Dr Sacramento $195,000 08/19/13 3 / 2 1,200
503 Dunbarton Cir Sacramento $335,000 08/14/13 2 / 2&1/2 1,748
1030 Lochbrae Rd Sacramento $179,000 08/14/13 3 / 2 1,592
500 N St #1404 Sacramento $335,000 06/28/13 2 / 2 1,261
1620 Sutterville Rd Sacramento $475,000 06/10/13 5 / 3 2,265
2509 42nd St Sacramento $325,000 05/13/13 2 / 1 945
711 Fountain Dr West Sacramento $446,600 05/03/13 4 / 3 2,850
10228 Pedra Do Sol Way Elk Grove $275,000 02/12/13 4 / 2&1/2 2,456
510 Woodside Oaks #3 Sacramento $105,000 12/14/12 2 / 2 1,016
576 4th Ave Sacramento $399,000 12/10/12 2 / 2 1,551
8266 Streng Ave Citrus Heights $185,000 11/30/12 3 / 2&1/2 1,301
8889 Brecon Way Elk Grove $116,500 11/07/12 2 / 2 957
210 Cicero Cir Elk Grove $215,000 11/05/12 4 / 2&1/2 1,875
8920 Cypress View Way Elk Grove $182,000 09/28/12 3 / 2&1/2 1,490
9522 Village Tree Dr Elk Grove $163,894 09/25/12 3 / 2&1/2 1,532
3301 N Park Dr #2714 Sacramento $109,300 09/18/12 3 / 2&1/2 1,678
9905 Dove Shell Way Elk Grove $281,894 09/14/12 4 / 2 1,904
5011 23rd St Sacramento $135,000 09/10/12 2 / 1 1,335
1125 Hampton Rd Sacramento $120,000 09/04/12 2 / 1 930
509 Cool Wind Way Sacramento $211,900 09/04/12 3 / 2 1,409
2752 Catania Way Sacramento $139,650 08/27/12 3 / 2 1,229
8328 Spengler Dr Sacramento $160,000 08/13/12 4 / 3 1,860
5561 40th Ave Sacramento $55,000 08/03/12 2 / 1 813
9427 Timber River Way Elk Grove $180,000 08/02/12 4 / 2 1,712
7952 Golden Ring Way Antelope $145,000 07/31/12 3 / 2 1,436
2580 W El Camino Ave #10101 Sacramento $119,000 07/31/12 3 / 2&1/2 1,562
5103 Stoneglen Way Elk Grove $190,000 07/12/12 3 / 2 1,787
12082 Applebury Ct Rancho Cordova $295,000 07/06/12 4 / 3 3,094
8675 Elk Ridge Way Elk Grove $104,500 06/25/12 3 / 2 1,219
1675 Vernon St #85 Roseville $68,900 06/03/12 2 / 1 807
4103 Sally Ride Way Sacramento $124,700 06/01/12 2 / 2&1/2 1,309
5501 Coral Creek Way Elk Grove $135,000 06/01/12 3 / 2 1,185
4777 Clothier Way Sacramento $95,000 05/31/12 3 / 1&1/2 1,272
8233 Crystal Walk Cir Elk Grove $179,000 05/24/12 3 / 2&1/2 1,718
8589 Alissa Way Elk Grove $235,000 05/17/12 4 / 3 1,999
3632 Westchester Dr Roseville $750,000 05/11/12 5 / 5&1/2 5,848
9034 El Measa Ct Elk Grove $150,000 04/26/12 3 / 2 1,752
3798 Naturita Way Sacramento $125,000 04/24/12 3 / 2&1/2 1,317
2532 Ribier Way Rancho Cordova $95,000 04/24/12 3 / 1 1,000
656 Springfield Cir Roseville $217,000 04/23/12 4 / 2&1/2 1,838
7213 Beja Ct Elk Grove $335,000 04/16/12 4 / 2&1/2 2,633
2334 Maryal Dr Sacramento $188,000 03/27/12 2 / 1 1,102
4404 Poros Ct Elk Grove $140,000 03/23/12 3 / 2 1,314
150 Belfont Cir Sacramento $175,000 03/23/12 3 / 2 1,682
8213 Northam Dr Antelope $126,000 03/22/12 3 / 3 1,445
2657 Castro Way Sacramento $295,000 03/12/12 3 / 1&1/2 1,356
200 P St #D14 Sacramento $149,000 03/12/12 2 / 1 950
6514 Trajan Dr Orangevale $150,000 03/08/12 3 / 2 1,419
2137 Bidwell Way Sacramento $150,000 03/05/12 2 / 1 918
1825 Beverly Way Sacramento $335,000 03/02/12 3 / 1 1,222
18 Jicama Ct Sacramento $160,000 02/15/12 2 / 2 1,414
4032 Knoll Top Ct Carmichael $93,000 02/08/12 3 / 1&1/2 1,344
5507 Valhalla Dr Carmichael $215,000 01/31/12 4 / 2&1/2 1,872
8015 Delage Way Sacramento $105,000 01/31/12 3 / 2 1,335
9152 Kendrick Way Orangevale $148,000 01/31/12 3 / 2 1,145
5407 Matina Dr Elk Grove $228,000 01/20/12 4 / 2 2,078
4038 Knoll Top Ct Carmichael $70,000 01/19/12 3 / 1&1/2 1,323
6133 Marwick Way Carmichael $100,000 01/12/12 3 / 2 1,160
5350 Dunlay Dr #3413 Sacramento $110,000 01/05/12 2 / 2 1,519
11811 Sheldon Lake Dr Elk Grove $285,000 12/20/11 3 / 2 1,501
3169 Staysail St Sacramento $125,000 12/12/11 3 / 2 1,194
9211 Lamprey Dr Elk Grove $269,000 12/09/11 4 / 3 3,199
3824 Delaware Ave Carmichael $140,000 11/30/11 3 / 2 1,302
2524 Berrywood Dr Rancho Cordova $89,000 11/28/11 3 / 1 1,050
3610 Millbrae Rd Cameron Park $185,000 11/02/11 3 / 2 1,676
2306 Donner Pass Ave Sacramento $192,500 10/26/11 4 / 2&1/2 1,876
8573 Hermitage Way Sacramento $120,000 10/24/11 3 / 2 1,311
2760 Chateau Montelena Way Sacramento $160,000 10/24/11 3 / 2 1,441
440 Lyman Cir Sacramento $304,900 10/03/11 4 / 3 3,389
7854 Caber Way Antelope $110,000 10/03/11 3 / 2 1,362
6112 Travo Way Elk Grove $245,000 09/23/11 3 / 2 2,228
4200 E Commerce Way #1524 Sacramento $68,000 09/16/11 2 / 2 958
8017 Dicus Ct Citrus Heights $123,500 09/12/11 3 / 2 1,104
5 Java Ct Sacramento $295,000 08/19/11 4 / 2&1/2 2,585
745 Cecilyn Way Sacramento $175,000 08/15/11 3 / 2 1,593
9508 Kilcolgan Way Elk Grove $185,000 08/11/11 4 / 2 1,741
2415 Stokewood Way Rancho Cordova $88,199 08/09/11 3 / 2 1,184
9189 Morristown Ct Elk Grove $185,000 07/29/11 4 / 3 1,899
4046 Vittoria Ln Sacramento $170,000 07/26/11 3 / 2&1/2 1,576
2481 Mcgregor Dr Rancho Cordova $149,000 07/22/11 3 / 2 1,646
8907 Salmon Falls Dr #C Sacramento $62,500 07/18/11 2 / 1&1/2 1,014
7756 Park River Oak Cir Sacramento $149,000 07/11/11 3 / 2&1/2 1,471
9145 Newhall Dr #56 Sacramento $49,900 06/30/11 2 / 1 875
5348 Swindon Rd Rocklin $325,686 06/24/11 4 / 3 2,437
1101 Buckbrush Dr Folsom $330,939 06/13/11 4 / 2 2,100
2155 Stony Bar Way Gold River $285,000 06/13/11 3 / 2 2,089
2024 58th St Sacramento $199,000 06/13/11 3 / 1 1,081
1291 Milano Dr #6 West Sacramento $109,000 06/06/11 2 / 2 1,307
3229 Turnbuckle Cir Elk Grove $205,000 05/26/11 3 / 2 1,596
511 Fremont Way Sacramento $249,000 05/17/11 3 / 2 1,680
317 Laver Ct Roseville $329,000 04/27/11 4 / 3 2,521
4800 Westlake Pkwy #2704 Sacramento $85,000 04/20/11 1 / 1&1/2 1,125
5721 Palomar Cir Rocklin $185,000 04/12/11 3 / 2 1,536
2008 Milan Way Roseville $169,900 04/05/11 3 / 2 1,211
9131 Newhall Dr #72 Sacramento $57,500 03/28/11 2 / 1&1/2 1,140
4536 Wawona Cir Fair Oaks $203,500 03/25/11 3 / 2 1,556
6900 Elvora Way Elk Grove $263,000 03/14/11 4 / 3&1/2 2,690
10018 Spring View Way Elk Grove $286,814 03/05/11 4 / 2&1/2 3,047
1825 Zurlo Way Sacramento $145,000 03/04/11 3 / 2 1,358
10468 Canadeo Cir Elk Grove $190,000 02/16/11 3 / 2 1,450
4821 Kitty Hawk St Fair Oaks $129,000 02/16/11 3 / 1&1/2 960
816 8th Ave Sacramento $325,000 02/14/11 3 / 2 1,423
1974 MAVERICK Dr Plumas Lake $180,000 02/11/11 4 / 2 2,182
8407 Stevenson Ave Sacramento $120,000 02/10/11 3 / 2 1,132
2244 Owl Meadow St Folsom $280,000 02/07/11 3 / 2 1,344
2137 Bidwell Way Sacramento $245,000 02/02/11 2 / 1 918
1300 8th Ave Sacramento $475,000 01/28/11 3 / 2 1,956
3695 Topaz Rd West Sacramento $310,000 12/21/10 4 / 3 3,154
4425 77th St Sacramento $65,000 12/06/10 3 / 1&1/2 1,130
4800 Westlake Pkwy #2507 Sacramento $78,000 11/19/10 1 / 1&1/2 1,125
8087 Mcclung Dr Citrus Heights $185,000 10/29/10 4 / 2 1,623
2336 Lockton Dr Roseville $315,000 10/28/10 3 / 2 2,091
7214 Desertas Ct Elk Grove $245,000 10/21/10 4 / 3 2,276
2921 N Platte Way Sacramento $240,000 10/21/10 5 / 3 2,668
8 Water Reef Ct Sacramento $495,000 10/20/10 4 / 3 2,820
9992 Phoenician Way Sacramento $289,000 10/19/10 4 / 3 2,539
3775 Erlewine Cir Sacramento $285,000 10/19/10 3 / 2 1,644
8956 Rising Mist Way Roseville $215,000 10/15/10 3 / 2 1,458
49669 Hamilton Rd Clarksburg $499,000 10/15/10 7 / 3 3,100
11878 Pyxis Cir Rancho Cordova $350,000 10/11/10 5 / 3&1/2 3,470
6104 Via Casitas Carmichael $95,000 09/16/10 3 / 2&1/2 1,380
15 Seacrest Ct Sacramento $280,000 09/13/10 3 / 2&1/2 2,369
2521 Dawes St Rancho Cordova $80,000 09/13/10 3 / 2 1,109
3608 Husch Way Rancho Cordova $210,000 09/05/10 3 / 2 1,417
216 Stirup Ct Galt $160,000 09/02/10 3 / 2 1,410
8814 Mohawk Way Fair Oaks $149,000 08/26/10 3 / 2 1,296
3245 Argonaut Ave Rocklin $285,000 08/25/10 3 / 3 2,151
9839 Gavirate Way Elk Grove $249,000 08/24/10 4 / 2 2,121
9101 Eagle Wind Dr Roseville $190,000 08/24/10 3 / 2 1,161
945 Sierra Park Ln Sacramento $515,000 08/17/10 5 / 3 3,149
10328 Marlaw Way Elk Grove $245,000 08/16/10 4 / 2 2,078
3680 Topaz Rd West Sacramento $266,000 08/10/10 3 / 2 2,250
5037 Cocoa Palm Way Fair Oaks $279,000 08/10/10 3 / 2 1,772
3509 Sombra Ct Cameron Park $299,000 08/03/10 4 / 3 2,449
10252 Shoech Way Elk Grove $245,000 07/26/10 4 / 2 2,667
3657 24th St Sacramento $275,000 07/21/10 3 / 2&1/2 2,234
9424 2nd Ave Elk Grove $170,000 07/20/10 2 / 2 1,345
2611 H St Sacramento $450,000 07/19/10 4 / 2&1/2 2,802
4221 Oslo Ct Antelope $160,000 07/07/10 3 / 2 1,229
4005 Shadybrooke Ct Granite Bay $699,000 07/02/10 4 / 4 4,207
9675 Appalachian Dr Sacramento $185,000 06/25/10 4 / 2 1,783
6916 Riqueza Ct Elk Grove $340,000 05/27/10 4 / 3 3,598
2217 17th St Sacramento $258,000 05/24/10 4 / 2 1,930
616 Dudley Way Sacramento $285,000 04/20/10 4 / 3&1/2 2,124
1220 Chablis Cir Roseville $175,000 04/13/10 3 / 2 1,438
4800 Westlake Pkwy #1203 Sacramento $100,000 03/10/10 2 / 2&1/2 1,288
1048 Johnfer Way Sacramento $135,000 03/03/10 3 / 2 1,168
838 Devonshire Ln Lincoln $208,000 02/16/10 4 / 2&1/2 2,431
3013 Pescara Pl El Dorado Hills $350,000 01/11/10 4 / 3&1/2 2,832
6756 Demaret Dr Sacramento $100,000 08/21/09 3 / 2 1,630
*List not guaranteed to be complete.
showing 192 of 192

About Realtor Linda Swanson

Contact Linda Swanson
About Me: -
Specialities:
Representing Buyers, Representing Sellers, First-Time Buyers, Short Sales, Luxury Properties, Senior Housing, Investment Properties
Interests: -
Certifications/Awards: -
MLS Association:
Sacramento Association Of Realtors Inc, MetroList Multiple Listing Service system
State License Info:
Name: Swanson, Linda V
First Name: Linda
Middle Name: V
Last Name: Swanson
License #: 01015595
License Type: BROKER
Office Address: 2801 J ST
SACRAMENTO, CA 95816
License Status: LICENSED
License Issue Date: 11/17/08
License Expire Date: 11/16/16
License State: CA
Mailing Address: 830 FALCON AVE
DAVIS, CA 95616

Connect with Realtor Linda Swanson

Website: www.lswanson.golyon.com  
Link To This Page: http://www.movoto.com/realestateagent/linda-swanson-10

Reviews of Linda Swanson

REVIEW THIS AGENT
Overall Rating of *

Optional
Responsiveness
Real Estate Experience
Market Knowledge
Refer to a Friend
Your Name:*
Review Title:*
Review:*
Service Provided:
Year:
City:
State:   
Contact Linda Swanson
Name:
Email:
Phone:
Comments:
Or Call Toll-Free 888-766-8686
GO

Browse Nearby Homes

43428 Almond Ln
Davis, CA 95618
$1,295,000 4 bd, 3 ba, 3,495 sqft
3740 Modoc Pl
Davis, CA 95618
$710,000 4 bd, 2&1/2 ba, 2,353 sqft
909 Bliss Ct
Davis, CA 95618
$610,000 4 bd, 2 ba, 1,885 sqft
2037 Imperial Ave
Davis, CA 95616
$609,000 3 bd, 2&1/2 ba, 1,700 sqft
2762 Belmont Dr
Davis, CA 95618
$399,000 3 bd, 1 ba, 960 sqft
Linda Swanson is a real estate agent and has 22 years of experience as a real estate professional. Linda Swanson works with Lyon RE Downtown Sacramento and serves parts of Sacramento County including Sacramento and Elk Grove. Lyon RE Downtown Sacramento's phone number is 916-447-7878 and is located at 2801 J Street, Sacramento CA 95816. This agent has completed at least 40 transactions in the past year, primarily in Sacramento. Linda Swanson's specialties include: Representing Buyers, Representing Sellers, First-Time Buyers And Short Sales. This Realtor is able to work with clients who speak English. Linda Swanson has a license number of license #: 01015595. Learn more about Linda Swanson by visiting the agent's website at www.lswanson.golyon.com. You can contact Linda Swanson via email on this page.

Linda Swanson is one of 2 qualified agents available in Sacramento and Elk Grove. Visit the Sacramento and Elk Grove Agent Directory page to view more of our partner Realtors. If you would like assistance contacting an agent, get in touch with a Movoto representative by calling 1-888-766-8686.


Real Estate by State

Alabama  |  Arizona  |  Arkansas  |  California  |  Colorado  |  Connecticut  |  Delaware  |  Florida  |  Georgia  |  Illinois  |  Indiana  |  Kansas  |  Kentucky  |  Louisiana  |  Maryland  |  Massachusetts  |  Michigan  |  Minnesota  |  Missouri  |  Nevada  |  New Hampshire  |  New Jersey  |  New York  |  North Carolina  |  Ohio  |  Oklahoma  |  Oregon  |  Pennsylvania  |  Rhode Island  |  South Carolina  |  Tennessee  |  Texas  |  Utah  |  Vermont  |  Virginia  |  Washington  |  Washington DC  |  Wisconsin

Real Estate by Popular Cities

Atlanta  |  Austin  |  Baltimore  |  Boston  |  Charleston  |  Charlotte  |  Chicago  |  Dallas  |  Denver  |  Detroit  |  Houston  |  Irvine  |  Jacksonville  |  Las Vegas  |  Los Angeles  |  Miami  |  Memphis  |  Nashville  |  Ocean City  |  Palm Desert  |  Philadelphia  |  Phoenix  |  Portland  |  Raleigh  |  San Diego  |  San Francisco  |  San Jose  |  Scottsdale  |  Seattle  |  Orlando  |  Tampa  |  Tucson  |  Washington